Time;durP1;ratioP1;P1;durP2;ratioP2;P2;SDS_P1;SDS_P2;PMS_P1;PMS_P2;Temp;Humidity;BMP_temperature;BMP_pressure;BME280_temperature;BME280_humidity;BME280_pressure;Samples;Min_cycle;Max_cycle;Signal;HPM_P1;HPM_P2
2022/06/27 00:00:09;;;;;;;4.28;2.35;;;;;;;21.10;100.00;100326.81;4392994;32;20504;-74
2022/06/27 00:02:38;;;;;;;3.00;2.25;;;;;;;21.06;100.00;100335.09;4392988;32;20089;-74
2022/06/27 00:05:07;;;;;;;8.70;2.30;;;;;;;21.14;100.00;100328.37;4378866;32;20129;-74
2022/06/27 00:07:34;;;;;;;4.70;2.12;;;;;;;21.13;100.00;100332.00;4393279;32;20449;-74
2022/06/27 00:10:03;;;;;;;3.22;2.12;;;;;;;21.20;100.00;100329.81;4392926;32;20489;-74
2022/06/27 00:12:31;;;;;;;2.55;2.35;;;;;;;21.15;100.00;100326.56;4392792;32;20134;-74
2022/06/27 00:14:58;;;;;;;4.87;2.35;;;;;;;21.06;100.00;100332.41;4392889;32;20139;-74
2022/06/27 00:17:27;;;;;;;3.42;2.40;;;;;;;20.97;100.00;100332.00;4392718;32;20101;-74
2022/06/27 00:19:55;;;;;;;8.45;3.20;;;;;;;20.88;100.00;100335.16;4392839;32;20078;-74
2022/06/27 00:22:22;;;;;;;8.45;2.55;;;;;;;20.88;100.00;100337.00;4392829;32;20086;-74
2022/06/27 00:24:49;;;;;;;3.25;2.70;;;;;;;20.87;100.00;100337.94;4392775;32;20093;-74
2022/06/27 00:27:17;;;;;;;7.78;2.58;;;;;;;20.87;100.00;100333.44;4392687;32;20165;-74
2022/06/27 00:29:45;;;;;;;4.82;2.40;;;;;;;20.85;100.00;100334.47;4392870;32;20502;-74
2022/06/27 00:32:12;;;;;;;7.15;2.85;;;;;;;20.76;100.00;100342.09;4393009;32;20273;-74
2022/06/27 00:34:40;;;;;;;3.85;2.35;;;;;;;20.70;100.00;100341.53;4392857;32;20493;-74
2022/06/27 00:37:09;;;;;;;3.60;2.72;;;;;;;20.68;100.00;100335.44;4392841;32;20132;-74
2022/06/27 00:39:36;;;;;;;2.85;2.65;;;;;;;20.62;100.00;100343.78;4392408;32;20164;-74
2022/06/27 00:42:04;;;;;;;6.12;3.00;;;;;;;20.58;100.00;100339.53;4392602;32;20157;-74
2022/06/27 00:44:40;;;;;;;4.78;2.97;;;;;;;20.59;100.00;100344.81;4392614;32;20090;-74
2022/06/27 00:47:12;;;;;;;7.62;2.95;;;;;;;20.52;100.00;100343.41;4392578;32;20124;-74
2022/06/27 00:49:40;;;;;;;4.75;2.75;;;;;;;20.43;100.00;100342.06;4392601;32;20078;-74
2022/06/27 00:52:11;;;;;;;2.30;2.10;;;;;;;20.53;100.00;100347.84;4392542;32;20089;-74
2022/06/27 00:54:42;;;;;;;2.40;2.30;;;;;;;20.50;100.00;100337.28;4392503;32;20521;-74
2022/06/27 00:57:13;;;;;;;3.22;2.72;;;;;;;20.51;100.00;100344.38;4392581;32;20116;-74
2022/06/27 00:59:40;;;;;;;6.97;2.50;;;;;;;20.52;100.00;100352.28;4392479;32;20081;-74
2022/06/27 01:02:08;;;;;;;5.82;2.20;;;;;;;20.47;100.00;100354.34;4392380;32;20677;-74
2022/06/27 01:04:37;;;;;;;4.30;2.78;;;;;;;20.44;100.00;100346.47;4392223;32;20106;-74
2022/06/27 01:07:08;;;;;;;7.53;2.42;;;;;;;20.38;100.00;100349.47;4392308;32;20149;-74
2022/06/27 01:09:42;;;;;;;3.22;2.53;;;;;;;20.36;100.00;100353.19;4392388;32;20074;-74
2022/06/27 01:12:11;;;;;;;4.72;2.45;;;;;;;20.35;100.00;100349.63;4392359;32;20086;-74
2022/06/27 01:14:38;;;;;;;3.40;2.70;;;;;;;20.39;100.00;100356.56;4392335;32;20522;-74
2022/06/27 01:17:06;;;;;;;6.25;2.62;;;;;;;20.41;100.00;100357.34;4392342;32;20438;-74
2022/06/27 01:19:33;;;;;;;3.58;2.92;;;;;;;20.41;100.00;100351.97;4392176;32;20177;-74
2022/06/27 01:22:06;;;;;;;5.57;2.92;;;;;;;20.36;100.00;100356.72;4392439;32;20097;-74
2022/06/27 01:24:34;;;;;;;5.95;3.00;;;;;;;20.29;100.00;100352.66;4392144;32;20435;-74
2022/06/27 01:27:05;;;;;;;4.32;2.80;;;;;;;20.27;100.00;100347.34;4392393;32;20121;-74
2022/06/27 01:29:33;;;;;;;3.65;2.37;;;;;;;20.24;100.00;100344.84;4392175;32;20160;-74
2022/06/27 01:32:00;;;;;;;3.03;2.55;;;;;;;20.21;100.00;100338.78;4392217;32;20451;-74
2022/06/27 01:34:30;;;;;;;4.12;3.00;;;;;;;20.21;100.00;100346.81;4392015;32;20497;-74
2022/06/27 01:36:57;;;;;;;2.78;2.58;;;;;;;20.14;100.00;100338.25;4392082;32;20097;-74
2022/06/27 01:39:26;;;;;;;13.02;3.20;;;;;;;20.18;100.00;100341.66;4391932;32;20112;-74
2022/06/27 01:42:00;;;;;;;4.85;3.10;;;;;;;20.17;100.00;100340.75;4392118;32;20085;-74
2022/06/27 01:44:30;;;;;;;6.25;2.80;;;;;;;20.10;100.00;100338.47;4392099;32;20130;-74
2022/06/27 01:47:08;;;;;;;3.03;2.80;;;;;;;20.18;100.00;100337.16;4391728;32;20588;-74
2022/06/27 01:49:38;;;;;;;18.55;3.83;;;;;;;20.16;100.00;100339.03;4392068;32;20124;-74
2022/06/27 01:52:07;;;;;;;5.95;2.70;;;;;;;20.17;100.00;100340.75;4393930;32;20094;-74
2022/06/27 01:54:36;;;;;;;4.80;2.83;;;;;;;20.17;100.00;100346.09;4393901;32;20148;-74
2022/06/27 01:57:05;;;;;;;4.25;3.03;;;;;;;20.16;100.00;100341.72;4393972;32;20109;-74
2022/06/27 01:59:35;;;;;;;8.88;3.20;;;;;;;20.11;100.00;100343.78;4394134;32;20600;-74
2022/06/27 02:02:06;;;;;;;4.00;3.05;;;;;;;20.08;100.00;100343.06;4394017;32;20089;-74
2022/06/27 02:04:34;;;;;;;4.85;3.45;;;;;;;20.04;100.00;100345.03;4393856;32;20099;-74
2022/06/27 02:07:03;;;;;;;3.95;3.20;;;;;;;20.03;100.00;100344.12;4393600;32;20795;-74
2022/06/27 02:09:30;;;;;;;6.50;4.03;;;;;;;19.96;100.00;100350.75;4393853;32;20105;-74
2022/06/27 02:12:19;;;;;;;5.20;3.25;;;;;;;19.90;100.00;100348.41;4393863;32;20090;-74
2022/06/27 02:14:51;;;;;;;8.75;3.50;;;;;;;20.00;100.00;100349.69;4394016;32;20116;-74
2022/06/27 02:17:21;;;;;;;3.85;3.45;;;;;;;20.08;100.00;100361.78;4393817;32;20121;-74
2022/06/27 02:19:49;;;;;;;3.92;3.53;;;;;;;20.13;100.00;100359.72;4393734;32;20090;-74
2022/06/27 02:22:16;;;;;;;4.93;3.80;;;;;;;20.17;100.00;100353.28;4393587;32;20120;-74
2022/06/27 02:24:43;;;;;;;5.45;3.72;;;;;;;20.19;100.00;100365.63;4393724;32;20893;-74
2022/06/27 02:27:11;;;;;;;5.80;3.40;;;;;;;20.23;100.00;100361.84;4393546;32;20168;-74
2022/06/27 02:29:39;;;;;;;7.05;3.20;;;;;;;20.24;100.00;100368.06;4393634;32;20156;-74
2022/06/27 02:32:07;;;;;;;4.47;3.30;;;;;;;20.23;100.00;100369.88;4393517;32;20519;-74
2022/06/27 02:34:37;;;;;;;6.78;3.30;;;;;;;20.28;100.00;100369.63;4393713;32;20118;-74
2022/06/27 02:37:05;;;;;;;6.32;3.60;;;;;;;20.22;100.00;100370.81;4393507;32;20513;-74
2022/06/27 02:39:36;;;;;;;5.78;3.42;;;;;;;20.19;100.00;100376.31;4393762;32;20152;-74
2022/06/27 02:42:08;;;;;;;5.28;3.53;;;;;;;20.20;100.00;100372.69;4393631;32;20168;-74
2022/06/27 02:44:37;;;;;;;4.62;3.30;;;;;;;20.21;100.00;100378.91;4393442;32;20098;-74
2022/06/27 02:47:06;;;;;;;3.35;3.15;;;;;;;20.17;100.00;100382.69;4393345;32;20121;-74
2022/06/27 02:49:33;;;;;;;5.90;3.60;;;;;;;20.19;100.00;100384.34;4393427;32;20146;-74
2022/06/27 02:52:32;;;;;;;8.45;3.37;;;;;;;20.28;100.00;100385.66;4393608;32;20102;-74
2022/06/27 02:55:13;;;;;;;3.58;3.30;;;;;;;20.34;100.00;100381.81;4393538;32;20445;-74
2022/06/27 02:58:17;;;;;;;3.92;3.62;;;;;;;20.41;100.00;100386.78;4393606;32;20438;-74
2022/06/27 03:00:49;;;;;;;6.32;3.20;;;;;;;20.34;100.00;100385.38;4388356;32;20090;-74
2022/06/27 03:03:17;;;;;;;6.37;3.37;;;;;;;20.30;100.00;100389.16;4393445;32;20451;-74
2022/06/27 03:05:56;;;;;;;9.18;3.20;;;;;;;20.36;100.00;100396.87;4393443;32;20106;-74
2022/06/27 03:08:23;;;;;;;4.20;3.28;;;;;;;20.42;100.00;100391.16;4393573;32;20127;-74
2022/06/27 03:10:51;;;;;;;4.90;3.55;;;;;;;20.41;100.00;100397.47;4393163;32;20209;-74
2022/06/27 03:13:18;;;;;;;6.10;3.40;;;;;;;20.45;100.00;100396.37;4393643;32;20098;-74
2022/06/27 03:15:45;;;;;;;3.90;3.42;;;;;;;20.48;100.00;100400.69;4393107;32;20446;-74
2022/06/27 03:18:14;;;;;;;5.18;3.80;;;;;;;20.56;100.00;100406.53;4393235;32;20113;-74
2022/06/27 03:20:45;;;;;;;4.15;3.60;;;;;;;20.63;100.00;100407.09;4379965;32;20894;-74
2022/06/27 03:23:12;;;;;;;4.07;3.53;;;;;;;20.63;100.00;100410.63;4393428;32;20437;-74
2022/06/27 03:25:40;;;;;;;5.80;3.72;;;;;;;20.66;100.00;100415.81;4393492;32;20106;-74
2022/06/27 03:28:08;;;;;;;10.55;3.53;;;;;;;20.70;100.00;100413.84;4393378;32;20128;-74
2022/06/27 03:30:36;;;;;;;8.73;3.50;;;;;;;20.74;100.00;100410.94;4393267;32;20521;-74
2022/06/27 03:33:05;;;;;;;5.53;3.62;;;;;;;20.72;100.00;100412.81;4393531;32;20442;-74
2022/06/27 03:35:32;;;;;;;4.75;3.45;;;;;;;20.75;100.00;100411.78;4393106;32;20117;-74
2022/06/27 03:38:00;;;;;;;5.78;3.58;;;;;;;20.82;100.00;100421.22;4393386;32;20135;-74
2022/06/27 03:40:28;;;;;;;6.80;3.58;;;;;;;20.88;100.00;100417.34;4393293;32;20535;-74
2022/06/27 03:42:56;;;;;;;3.75;3.45;;;;;;;20.89;100.00;100424.44;4393280;32;20133;-74
2022/06/27 03:45:24;;;;;;;17.08;3.70;;;;;;;21.05;100.00;100419.97;4393114;32;20673;-74
2022/06/27 03:47:57;;;;;;;3.58;3.28;;;;;;;21.11;100.00;100421.47;4379268;32;20158;-74
2022/06/27 03:50:32;;;;;;;10.35;3.42;;;;;;;21.13;100.00;100424.91;4393205;32;20098;-74
2022/06/27 03:53:02;;;;;;;7.93;4.28;;;;;;;21.22;100.00;100427.94;4393053;32;20086;-74
2022/06/27 03:55:30;;;;;;;4.75;3.60;;;;;;;21.29;100.00;100423.13;4393205;32;20197;-74
2022/06/27 03:57:59;;;;;;;7.40;3.40;;;;;;;21.35;100.00;100424.63;4393210;32;20114;-74
2022/06/27 04:00:32;;;;;;;7.50;3.00;;;;;;;21.42;100.00;100424.19;4393072;32;20117;-73
2022/06/27 04:03:00;;;;;;;8.35;2.80;;;;;;;21.63;100.00;100426.63;4393287;32;20747;-74
2022/06/27 04:05:28;;;;;;;3.37;3.15;;;;;;;21.81;100.00;100428.25;4393845;32;20132;-73
2022/06/27 04:07:55;;;;;;;3.87;2.72;;;;;;;22.00;100.00;100430.69;4393422;32;20473;-73
2022/06/27 04:10:22;;;;;;;3.53;3.22;;;;;;;22.13;100.00;100433.53;4393214;32;20074;-73
2022/06/27 04:12:50;;;;;;;4.10;2.75;;;;;;;22.30;100.00;100430.75;4392658;32;20462;-73
2022/06/27 04:15:21;;;;;;;5.82;2.87;;;;;;;22.38;100.00;100438.34;4392896;32;20098;-73
2022/06/27 04:17:53;;;;;;;8.20;2.78;;;;;;;22.44;100.00;100437.97;4393290;32;20527;-73
2022/06/27 04:20:25;;;;;;;3.47;3.00;;;;;;;22.59;100.00;100441.56;4393171;32;20181;-75
2022/06/27 04:22:53;;;;;;;6.15;2.90;;;;;;;22.65;100.00;100442.03;4393192;32;20496;-76
2022/06/27 04:25:33;;;;;;;8.30;2.78;;;;;;;22.67;100.00;100447.31;4393005;32;20094;-74
2022/06/27 04:28:06;;;;;;;3.50;3.15;;;;;;;22.79;100.00;100445.69;4392913;32;20496;-75
2022/06/27 04:30:34;;;;;;;9.10;3.40;;;;;;;22.90;100.00;100449.47;4392949;32;20105;-75
2022/06/27 04:33:01;;;;;;;7.40;3.00;;;;;;;23.00;100.00;100454.28;4393626;32;20120;-75
2022/06/27 04:35:29;;;;;;;3.47;3.00;;;;;;;23.05;100.00;100447.66;4393585;32;20105;-74
2022/06/27 04:37:56;;;;;;;4.30;2.78;;;;;;;23.16;100.00;100455.03;4392664;32;20185;-75
2022/06/27 04:40:25;;;;;;;7.75;3.03;;;;;;;23.19;100.00;100454.84;4392969;32;20082;-75
2022/06/27 04:42:53;;;;;;;4.55;2.90;;;;;;;23.31;100.00;100453.22;4393777;32;20156;-75
2022/06/27 04:45:20;;;;;;;6.62;2.75;;;;;;;23.41;100.00;100450.81;4393394;32;20571;-75
2022/06/27 04:47:48;;;;;;;3.65;2.83;;;;;;;23.50;100.00;100448.38;4393658;32;20136;-76
2022/06/27 04:50:18;;;;;;;33.97;3.85;;;;;;;23.57;99.71;100447.03;4393496;32;20521;-77
2022/06/27 04:52:48;;;;;;;12.18;3.03;;;;;;;23.61;98.73;100447.69;4393396;32;20117;-76
2022/06/27 04:55:16;;;;;;;4.45;2.97;;;;;;;23.70;97.90;100446.25;4393668;32;20110;-76
2022/06/27 04:57:47;;;;;;;4.12;2.78;;;;;;;23.78;97.22;100450.19;4393422;32;20148;-76
2022/06/27 05:00:16;;;;;;;3.87;2.78;;;;;;;23.89;96.91;100451.25;4393581;32;20120;-76
2022/06/27 05:02:55;;;;;;;5.32;2.65;;;;;;;23.92;96.05;100451.91;4393439;32;20103;-76
2022/06/27 05:05:22;;;;;;;8.73;2.83;;;;;;;24.04;95.60;100456.50;4393380;32;20102;-75
2022/06/27 05:07:51;;;;;;;4.43;2.60;;;;;;;24.03;95.39;100457.47;4393183;32;20094;-76
2022/06/27 05:10:19;;;;;;;4.32;3.00;;;;;;;24.20;94.47;100452.78;4393279;32;20101;-75
2022/06/27 05:12:46;;;;;;;6.07;2.87;;;;;;;24.27;93.62;100457.63;4393226;32;20124;-75
2022/06/27 05:15:14;;;;;;;4.03;2.87;;;;;;;24.29;92.54;100453.03;4392937;32;20157;-75
2022/06/27 05:17:43;;;;;;;3.62;3.33;;;;;;;24.19;93.58;100454.59;4393227;32;20125;-74
2022/06/27 05:20:11;;;;;;;6.90;2.92;;;;;;;24.30;92.89;100454.75;4392867;32;20127;-75
2022/06/27 05:22:39;;;;;;;3.50;2.78;;;;;;;24.37;92.20;100454.31;4378281;32;20116;-76
2022/06/27 05:25:07;;;;;;;35.40;3.58;;;;;;;24.50;91.62;100461.50;4392902;32;20101;-74
2022/06/27 05:27:35;;;;;;;5.93;2.85;;;;;;;24.53;90.82;100461.28;4398413;32;20206;-74
2022/06/27 05:30:05;;;;;;;6.12;2.80;;;;;;;24.69;90.81;100460.22;4404556;32;20082;-75
2022/06/27 05:32:33;;;;;;;4.68;2.97;;;;;;;24.78;90.96;100456.91;4391660;32;20085;-75
2022/06/27 05:35:01;;;;;;;3.97;2.80;;;;;;;24.84;90.03;100452.88;4402143;32;20098;-76
2022/06/27 05:37:29;;;;;;;7.40;3.03;;;;;;;24.88;89.09;100457.13;4394757;32;20186;-75
2022/06/27 05:39:56;;;;;;;7.93;2.97;;;;;;;24.87;89.51;100456.22;4394543;32;20109;-73
2022/06/27 05:42:23;;;;;;;12.32;3.22;;;;;;;25.02;88.84;100454.31;4393239;32;20097;-74
2022/06/27 05:44:51;;;;;;;6.82;3.03;;;;;;;25.07;88.80;100457.53;4393654;32;20216;-75
2022/06/27 05:47:19;;;;;;;9.07;3.05;;;;;;;25.13;88.16;100464.37;4409943;32;20779;-74
2022/06/27 05:49:49;;;;;;;13.15;3.08;;;;;;;25.10;88.28;100465.41;4410018;32;20094;-75
2022/06/27 05:52:16;;;;;;;4.37;2.47;;;;;;;25.19;87.95;100464.75;4409075;32;20094;-76
2022/06/27 05:54:44;;;;;;;7.60;3.35;;;;;;;25.38;86.29;100468.84;4408178;32;20149;-74
2022/06/27 05:57:14;;;;;;;5.28;3.15;;;;;;;25.36;86.24;100463.56;4408159;32;20511;-75
2022/06/27 05:59:43;;;;;;;9.45;3.20;;;;;;;25.34;85.85;100472.75;4408086;32;20763;-76
2022/06/27 06:02:10;;;;;;;6.57;3.42;;;;;;;25.35;87.17;100469.94;4408418;32;20106;-75
2022/06/27 06:04:38;;;;;;;7.32;3.08;;;;;;;25.42;87.11;100476.59;4404708;32;20175;-75
2022/06/27 06:07:07;;;;;;;4.60;3.20;;;;;;;25.59;85.38;100474.53;4407597;32;20140;-77
2022/06/27 06:09:36;;;;;;;5.43;3.40;;;;;;;25.58;84.76;100480.87;4408102;32;20098;-75
2022/06/27 06:12:06;;;;;;;7.93;2.95;;;;;;;25.69;84.61;100492.62;4408069;32;20427;-75
2022/06/27 06:14:38;;;;;;;10.57;2.90;;;;;;;25.77;85.05;100488.50;4408671;32;20804;-75
2022/06/27 06:17:06;;;;;;;9.73;3.37;;;;;;;25.84;84.40;100485.25;4412783;32;20121;-74
2022/06/27 06:19:36;;;;;;;19.25;3.53;;;;;;;25.88;84.49;100484.06;4407350;32;20466;-73
2022/06/27 06:22:04;;;;;;;7.60;3.10;;;;;;;25.96;84.53;100491.59;4414670;32;20171;-72
2022/06/27 06:24:32;;;;;;;19.75;3.75;;;;;;;26.11;82.95;100486.88;4411486;32;20154;-73
2022/06/27 06:27:06;;;;;;;14.55;3.25;;;;;;;26.14;83.76;100495.59;4413416;32;20641;-72
2022/06/27 06:29:35;;;;;;;7.78;3.45;;;;;;;26.23;82.73;100500.31;4414020;32;20086;-74
2022/06/27 06:32:04;;;;;;;5.05;2.75;;;;;;;26.29;82.96;100501.72;4414537;32;20537;-74
2022/06/27 06:34:35;;;;;;;3.80;3.12;;;;;;;26.35;83.07;100503.91;4414482;32;20173;-73
2022/06/27 06:37:05;;;;;;;8.02;3.00;;;;;;;26.42;81.97;100502.47;4413403;32;20110;-72
2022/06/27 06:39:39;;;;;;;5.90;3.33;;;;;;;26.38;81.74;100498.28;4412587;32;20472;-72
2022/06/27 06:42:07;;;;;;;6.70;3.05;;;;;;;26.46;81.83;100495.88;4413444;32;20173;-72
2022/06/27 06:44:45;;;;;;;5.43;3.25;;;;;;;26.50;80.58;100491.09;4413404;32;20149;-74
2022/06/27 06:47:14;;;;;;;4.70;2.97;;;;;;;26.42;81.09;100505.19;4414724;32;20149;-73
2022/06/27 06:49:43;;;;;;;10.73;2.45;;;;;;;26.71;80.47;100499.41;4413334;32;20081;-72
2022/06/27 06:52:10;;;;;;;3.10;2.80;;;;;;;26.90;80.26;100502.41;4414487;32;20090;-71
2022/06/27 06:54:41;;;;;;;13.25;3.62;;;;;;;26.92;79.51;100496.88;4413240;32;20097;-72
2022/06/27 06:57:15;;;;;;;10.93;2.92;;;;;;;26.93;79.30;100498.63;4413425;32;20806;-72
2022/06/27 06:59:42;;;;;;;6.15;3.30;;;;;;;26.98;79.72;100496.38;4413626;32;20113;-72
2022/06/27 07:02:09;;;;;;;4.97;2.65;;;;;;;27.02;78.77;100503.28;4398724;32;20085;-72
2022/06/27 07:04:38;;;;;;;2.70;2.50;;;;;;;27.14;78.22;100499.66;4394182;32;21140;-72
2022/06/27 07:07:06;;;;;;;13.62;3.10;;;;;;;27.13;78.61;100497.91;4393528;32;20120;-72
2022/06/27 07:09:33;;;;;;;4.03;2.67;;;;;;;27.28;77.86;100506.66;4412467;32;20759;-72
2022/06/27 07:12:01;;;;;;;4.03;2.53;;;;;;;27.52;75.45;100501.09;4414549;32;20235;-72
2022/06/27 07:14:28;;;;;;;6.00;2.47;;;;;;;27.66;74.13;100499.97;4411659;32;20105;-71
2022/06/27 07:16:56;;;;;;;4.20;2.60;;;;;;;27.62;72.65;100496.66;4410333;32;20171;-71
2022/06/27 07:19:23;;;;;;;5.65;2.70;;;;;;;27.74;73.06;100494.81;4407886;32;20098;-72
2022/06/27 07:21:51;;;;;;;4.25;2.53;;;;;;;27.91;71.96;100501.56;4408369;32;20089;-73
2022/06/27 07:24:18;;;;;;;4.97;2.62;;;;;;;27.86;72.22;100504.66;4408401;32;20109;-72
2022/06/27 07:26:45;;;;;;;4.85;2.75;;;;;;;27.99;72.87;100490.97;4408540;32;20832;-73
2022/06/27 07:29:13;;;;;;;7.65;2.90;;;;;;;28.09;72.49;100500.06;4408401;32;20449;-72
2022/06/27 07:31:40;;;;;;;5.50;2.92;;;;;;;28.25;71.67;100501.47;4407877;32;20127;-72
2022/06/27 07:34:08;;;;;;;7.72;2.95;;;;;;;28.29;71.14;100495.66;4407268;32;20501;-71
2022/06/27 07:36:36;;;;;;;13.35;3.22;;;;;;;28.40;70.42;100513.75;4407379;32;20193;-70
2022/06/27 07:39:03;;;;;;;8.98;2.80;;;;;;;28.63;69.31;100502.81;4406376;32;20086;-71
2022/06/27 07:41:32;;;;;;;9.43;3.20;;;;;;;28.65;68.97;100503.53;4405009;32;20163;-70
2022/06/27 07:44:03;;;;;;;12.90;3.30;;;;;;;28.77;68.24;100505.19;4406460;32;20132;-71
2022/06/27 07:46:31;;;;;;;4.12;2.90;;;;;;;28.86;68.44;100509.81;4407378;32;20110;-72
2022/06/27 07:48:59;;;;;;;8.60;3.50;;;;;;;28.79;66.67;100512.19;4406585;32;20187;-70
2022/06/27 07:51:27;;;;;;;12.20;3.45;;;;;;;28.77;67.87;100507.91;4407160;32;20093;-72
2022/06/27 07:53:54;;;;;;;12.23;3.67;;;;;;;28.97;69.58;100517.00;4405582;32;20140;-72
2022/06/27 07:56:23;;;;;;;11.32;2.97;;;;;;;29.18;67.39;100522.47;4405643;32;20475;-71
2022/06/27 07:59:10;;;;;;;6.93;3.10;;;;;;;29.29;65.90;100527.78;4407533;32;20108;-70
2022/06/27 08:01:39;;;;;;;10.65;2.90;;;;;;;29.49;65.38;100518.75;4408614;32;20102;-69
2022/06/27 08:04:08;;;;;;;55.10;5.12;;;;;;;29.30;65.95;100521.41;4408307;32;20251;-70
2022/06/27 08:06:35;;;;;;;14.73;3.78;;;;;;;29.23;66.66;100517.50;4407354;32;20124;-70
2022/06/27 08:09:07;;;;;;;8.48;3.12;;;;;;;29.50;65.61;100516.88;4405695;32;20101;-70
2022/06/27 08:11:40;;;;;;;12.95;3.08;;;;;;;29.81;63.47;100517.75;4405983;32;20090;-70
2022/06/27 08:14:11;;;;;;;6.32;3.30;;;;;;;29.90;63.13;100522.34;4408509;32;20094;-70
2022/06/27 08:16:40;;;;;;;4.45;2.80;;;;;;;29.92;63.74;100522.19;4408439;32;20183;-71
2022/06/27 08:19:09;;;;;;;9.25;2.50;;;;;;;30.07;62.63;100522.66;4408722;32;20082;-70
2022/06/27 08:21:37;;;;;;;9.48;3.25;;;;;;;30.33;60.94;100515.72;4408837;32;20094;-71
2022/06/27 08:24:11;;;;;;;4.22;3.10;;;;;;;30.38;60.02;100526.16;4408426;32;20610;-70
2022/06/27 08:26:38;;;;;;;17.10;2.90;;;;;;;30.60;59.70;100525.00;4408188;32;20167;-70
2022/06/27 08:29:07;;;;;;;7.10;2.97;;;;;;;30.79;59.44;100524.16;4408345;32;20090;-70
2022/06/27 08:31:34;;;;;;;7.80;3.75;;;;;;;30.85;58.18;100527.16;4408023;32;20101;-70
2022/06/27 08:34:03;;;;;;;4.93;3.00;;;;;;;30.69;57.96;100535.87;4406053;32;20167;-70
2022/06/27 08:36:33;;;;;;;9.30;2.47;;;;;;;30.90;58.22;100533.03;4406382;32;20132;-70
2022/06/27 08:39:05;;;;;;;10.43;2.70;;;;;;;30.92;56.75;100532.84;4405126;32;20089;-71
2022/06/27 08:41:34;;;;;;;9.25;2.62;;;;;;;30.87;56.38;100538.75;4407424;32;20113;-71
2022/06/27 08:44:04;;;;;;;4.97;2.90;;;;;;;31.07;55.92;100528.69;4405690;32;20097;-71
2022/06/27 08:46:33;;;;;;;6.40;2.72;;;;;;;31.31;56.81;100525.50;4407624;32;20158;-71
2022/06/27 08:49:02;;;;;;;11.32;2.70;;;;;;;31.49;54.49;100524.72;4405028;32;20086;-71
2022/06/27 08:51:31;;;;;;;9.93;3.22;;;;;;;31.55;54.13;100522.22;4407921;32;20128;-72
2022/06/27 08:53:59;;;;;;;8.27;2.78;;;;;;;31.37;54.43;100519.44;4407600;32;20116;-72
2022/06/27 08:56:29;;;;;;;10.13;2.60;;;;;;;31.12;55.15;100525.53;4407854;32;20097;-71
2022/06/27 08:58:59;;;;;;;4.18;2.78;;;;;;;31.29;54.92;100516.59;4407590;32;20120;-71
2022/06/27 09:01:29;;;;;;;13.10;2.90;;;;;;;31.35;54.49;100518.75;4408143;32;20175;-70
2022/06/27 09:04:04;;;;;;;19.17;2.95;;;;;;;31.64;54.20;100517.75;4408055;32;20101;-71
2022/06/27 09:06:44;;;;;;;5.40;2.47;;;;;;;31.86;51.93;100511.03;4407161;32;20510;-71
2022/06/27 09:09:14;;;;;;;9.85;2.70;;;;;;;32.04;52.34;100511.09;4405931;32;20116;-72
2022/06/27 09:11:44;;;;;;;9.02;2.75;;;;;;;32.08;50.69;100512.50;4403476;32;20085;-71
2022/06/27 09:14:37;;;;;;;6.03;3.00;;;;;;;32.23;51.43;100505.50;4407309;32;20367;-72
2022/06/27 09:17:09;;;;;;;4.82;2.62;;;;;;;32.36;51.54;100505.94;4392227;32;20102;-72
2022/06/27 09:19:54;;;;;;;11.07;2.60;;;;;;;32.66;49.94;100501.16;4392187;32;20082;-71
2022/06/27 09:22:28;;;;;;;8.27;2.70;;;;;;;32.74;49.11;100495.75;4391900;32;20457;-72
2022/06/27 09:25:05;;;;;;;8.60;2.53;;;;;;;32.40;49.06;100494.75;4392459;32;20172;-71
2022/06/27 09:27:42;;;;;;;9.25;2.17;;;;;;;32.63;47.44;100493.28;4392421;32;20110;-72
2022/06/27 09:30:21;;;;;;;8.10;2.30;;;;;;;33.06;47.46;100497.87;4392919;32;20121;-72
2022/06/27 09:32:56;;;;;;;5.30;1.98;;;;;;;33.24;46.14;100500.53;4392491;32;20112;-72
2022/06/27 09:35:28;;;;;;;9.25;2.30;;;;;;;33.10;45.92;100492.94;4392425;32;20101;-71
2022/06/27 09:38:04;;;;;;;10.85;2.10;;;;;;;33.07;46.33;100488.66;4395991;32;20110;-72
2022/06/27 09:40:33;;;;;;;8.75;2.40;;;;;;;33.46;45.67;100490.03;4399845;32;20152;-72
2022/06/27 09:43:06;;;;;;;6.65;2.40;;;;;;;33.61;44.32;100496.66;4402833;32;20085;-73
2022/06/27 09:45:33;;;;;;;6.03;2.47;;;;;;;33.97;44.52;100491.81;4393571;32;20124;-72
2022/06/27 09:48:04;;;;;;;25.80;3.42;;;;;;;34.00;44.43;100486.03;4397356;32;20117;-72
2022/06/27 09:50:35;;;;;;;7.03;2.50;;;;;;;34.18;44.25;100477.69;4399929;32;20473;-71
2022/06/27 09:53:03;;;;;;;22.15;2.60;;;;;;;34.22;43.32;100490.00;4378978;32;20129;-71
2022/06/27 09:55:31;;;;;;;9.88;2.30;;;;;;;33.71;42.96;100485.56;4392088;32;20160;-71
2022/06/27 09:58:00;;;;;;;22.62;2.33;;;;;;;33.22;44.13;100482.62;4392506;32;20102;-72
2022/06/27 10:00:28;;;;;;;12.48;2.25;;;;;;;33.86;43.56;100477.59;4391333;32;20580;-72
2022/06/27 10:02:59;;;;;;;7.07;2.03;;;;;;;34.32;42.52;100473.44;4390947;32;20090;-71
2022/06/27 10:05:27;;;;;;;3.95;2.03;;;;;;;34.90;41.00;100474.25;4390960;32;20128;-73
2022/06/27 10:08:02;;;;;;;6.53;1.92;;;;;;;35.03;40.38;100465.56;4390484;32;20545;-72
2022/06/27 10:10:31;;;;;;;2.28;2.00;;;;;;;34.58;39.24;100473.28;4396942;32;20131;-72
2022/06/27 10:13:02;;;;;;;8.93;2.33;;;;;;;34.79;39.22;100463.69;4401938;32;20159;-72
2022/06/27 10:15:33;;;;;;;2.50;2.20;;;;;;;34.80;38.81;100465.38;4399364;32;20117;-72
2022/06/27 10:18:02;;;;;;;3.50;2.10;;;;;;;34.42;39.07;100468.66;4395600;32;20102;-72
2022/06/27 10:20:40;;;;;;;13.93;2.53;;;;;;;34.67;38.73;100455.84;4403611;32;20746;-73
2022/06/27 10:23:18;;;;;;;5.93;2.15;;;;;;;34.51;38.92;100453.09;4408679;32;20101;-72
2022/06/27 10:25:46;;;;;;;3.15;1.75;;;;;;;35.00;38.67;100455.75;4409802;32;20098;-73
2022/06/27 10:28:14;;;;;;;2.55;1.92;;;;;;;35.10;37.63;100450.13;4408600;32;20097;-73
2022/06/27 10:31:16;;;;;;;4.40;2.20;;;;;;;35.46;38.30;100450.47;4402901;32;20568;-72
2022/06/27 10:33:49;;;;;;;4.82;2.20;;;;;;;35.72;36.83;100458.41;4396302;32;20840;-72
2022/06/27 10:36:18;;;;;;;5.65;2.15;;;;;;;35.77;36.49;100446.94;4408010;32;20178;-72
2022/06/27 10:38:49;;;;;;;5.50;2.00;;;;;;;36.23;36.12;100449.72;4402210;32;20973;-72
2022/06/27 10:41:19;;;;;;;3.65;2.35;;;;;;;35.53;35.73;100439.69;4405287;32;20144;-72
2022/06/27 10:43:57;;;;;;;4.72;2.00;;;;;;;34.78;37.80;100438.19;4403094;32;20121;-72
2022/06/27 10:46:24;;;;;;;14.65;2.78;;;;;;;35.56;37.70;100434.72;4406349;32;20184;-72
2022/06/27 10:48:56;;;;;;;7.72;2.40;;;;;;;36.21;36.17;100432.59;4406041;32;20114;-72
2022/06/27 10:51:34;;;;;;;9.23;2.22;;;;;;;36.75;35.46;100432.44;4407423;32;20086;-72
2022/06/27 10:54:04;;;;;;;3.30;2.33;;;;;;;37.07;35.09;100432.16;4407280;32;20089;-72
2022/06/27 10:56:41;;;;;;;5.53;2.12;;;;;;;37.07;33.85;100429.41;4394433;32;20525;-72
2022/06/27 10:59:14;;;;;;;5.90;2.12;;;;;;;36.87;33.01;100421.88;4404989;32;20117;-72
2022/06/27 11:02:02;;;;;;;9.02;1.90;;;;;;;36.19;33.53;100423.72;4406934;32;20512;-72
2022/06/27 11:04:35;;;;;;;11.05;2.25;;;;;;;36.28;34.77;100425.31;4405091;32;20103;-72
2022/06/27 11:07:04;;;;;;;4.57;2.10;;;;;;;37.02;33.56;100417.25;4393215;32;20124;-72
2022/06/27 11:09:45;;;;;;;12.52;2.37;;;;;;;37.63;32.98;100428.00;4403486;32;20110;-72
2022/06/27 11:12:18;;;;;;;7.10;2.10;;;;;;;38.01;32.42;100418.50;4406375;32;20073;-72
2022/06/27 11:14:58;;;;;;;22.98;3.78;;;;;;;37.57;31.74;100420.56;4406400;32;20505;-72
2022/06/27 11:17:45;;;;;;;8.20;2.08;;;;;;;36.61;33.69;100410.31;4410670;32;20390;-72
2022/06/27 11:20:25;;;;;;;8.10;1.80;;;;;;;37.22;33.66;100403.81;4412818;32;20141;-72
2022/06/27 11:23:04;;;;;;;14.87;1.85;;;;;;;37.80;32.27;100402.81;4412897;32;20106;-72
2022/06/27 11:25:32;;;;;;;17.15;2.50;;;;;;;38.13;31.56;100402.34;4384294;32;20107;-72
2022/06/27 11:33:41;;;;;;;10.30;2.03;;;;;;;39.02;30.58;100395.41;4413370;32;20184;-72
2022/06/27 11:36:12;;;;;;;7.85;2.03;;;;;;;40.21;28.69;100398.56;4410986;32;20116;-72
2022/06/27 11:38:46;;;;;;;11.80;2.17;;;;;;;40.73;28.24;100388.59;4410855;32;20461;-72